EmailTwitter


Surface observations / Quebec / CYUL (71627)

Regions: Quebec | Canada | USA | Europe | France | UK | Elsewhere
Station
Display
Info & Location for CYUL (71627) | Help decoding METAR

Weather Conditions observed on 2017/09/21 at 14:00 UTC at MONTREAL INTL A, QB (CYUL)

Sky conditions: partly cloudy.

Temperature: 19.0 Celsius.

Dewpoint: 12.0 Celsius.

Relative Humidity: 64%

Winds: North at 19 km/h or 10 knots.

Mean Sea level Pressure: 102.14 kilopascals.

Altimeter Setting (QNH): 102.13 kilopascals or 30.16 inches of mercury.

Horizontal visibility: 15.00 statute miles or 24.00 kilometers.

Height of the Ceiling: 7620 metres ( 25000 feet ).

Coded METAR:

CYUL 211400Z 01010KT 15SM BKN250 19/12 A3016 RMK CI5 SLP214 DENSITY ALT 400FT=